GMME

Rabat-Salé Airport

Rabat, Morocco
METAR GMME 101530Z 29005KT 5000 FEW016 17/13 Q1023 NOSIG
Observed Flight Rules
Dec-10 @ 15:30 UTC (43 minutes ago) Marginal Visual Flight Rules
Wind Visibility Clouds
290° at 5 knots 5,005 meters
  • Few at 1,600' AGL
Temperatures Readings
Current 17°C / 63°F
Dewpoint 13°C / 55°F
Humidity 77%
Altimeter 30.21" Hg
Pressure 1023 hPa
Elevation 75
METAR GMME 101530Z 29005KT 5000 FEW016 17/13 Q1023 NOSIG
Observed Flight Rules
Dec-10 @ 15:30 UTC
(43 minutes ago)
MVFR
Wind Visibility
290° at 5 knots 5,005 meters
Clouds
  • Few at 1,600' AGL
Temperature Dewpoint
17°C / 63°F 13°C / 55°F
Humidity Altimeter Pressure
77% 30.21" Hg 1023 hPa